SBI5249 UNNT-UHPP
Flight info
| Callsign | SBI5249 |
|---|---|
| Flight time | N/A |
| Altitude | 39000 |
| Route | OGATI A308 RISPA A822 LAPAK B151 LURIN A824 NALEB T577 SAMIK |
| Aircraft | A320/M-SDE2E3FGHIRWXY/LB1 |
Departure
| Time | N/A |
|---|---|
| Airport | Novosibirsk Tolmachevo Airport (UNNT) |
Arrival
| Time | 2026-05-08 09:16 |
|---|---|
| Airport | Yelizovo Airport (UHPP) |
| Time | Latitude | Longitude | Altitude | Speed | Heading |
|---|---|---|---|---|---|
| 2026-05-08 08:19 | 53.41183 | 148.21576 | 38886 ft | 493 kts | 95° |
| 2026-05-08 08:20 | 53.40953 | 148.27323 | 38889 ft | 493 kts | 95° |
| 2026-05-08 08:20 | 53.40495 | 148.38795 | 38893 ft | 493 kts | 95° |
| 2026-05-08 08:21 | 53.40037 | 148.50198 | 38885 ft | 494 kts | 95° |
| 2026-05-08 08:21 | 53.39565 | 148.61679 | 38883 ft | 494 kts | 95° |
| 2026-05-08 08:22 | 53.39064 | 148.73162 | 38884 ft | 494 kts | 96° |
| 2026-05-08 08:22 | 53.38553 | 148.84667 | 38884 ft | 494 kts | 96° |
| 2026-05-08 08:23 | 53.38033 | 148.96154 | 38889 ft | 494 kts | 96° |
| 2026-05-08 08:23 | 53.37508 | 149.07582 | 38880 ft | 494 kts | 96° |
| 2026-05-08 08:24 | 53.36974 | 149.19069 | 38880 ft | 495 kts | 96° |
| 2026-05-08 08:24 | 53.36434 | 149.30569 | 38876 ft | 495 kts | 96° |
| 2026-05-08 08:25 | 53.35875 | 149.42048 | 38877 ft | 495 kts | 96° |
| 2026-05-08 08:25 | 53.35298 | 149.53543 | 38877 ft | 495 kts | 96° |
| 2026-05-08 08:26 | 53.34712 | 149.65039 | 38874 ft | 496 kts | 96° |
| 2026-05-08 08:26 | 53.34118 | 149.76463 | 38875 ft | 496 kts | 96° |
| 2026-05-08 08:27 | 53.33516 | 149.87975 | 38874 ft | 496 kts | 96° |
| 2026-05-08 08:27 | 53.32900 | 149.99496 | 38873 ft | 497 kts | 96° |
| 2026-05-08 08:28 | 53.32271 | 150.11006 | 38874 ft | 497 kts | 97° |
| 2026-05-08 08:28 | 53.31624 | 150.22445 | 38871 ft | 497 kts | 97° |
| 2026-05-08 08:29 | 53.30969 | 150.33968 | 38872 ft | 498 kts | 97° |
| 2026-05-08 08:29 | 53.30305 | 150.45498 | 38872 ft | 498 kts | 97° |
| 2026-05-08 08:30 | 53.29623 | 150.57031 | 38872 ft | 498 kts | 97° |
| 2026-05-08 08:30 | 53.28584 | 150.74253 | 38868 ft | 498 kts | 97° |
| 2026-05-08 08:31 | 53.27870 | 150.85768 | 38867 ft | 498 kts | 97° |
| 2026-05-08 08:31 | 53.27146 | 150.97300 | 38868 ft | 499 kts | 97° |
| 2026-05-08 08:32 | 53.26411 | 151.08847 | 38870 ft | 500 kts | 97° |
| 2026-05-08 08:32 | 53.25681 | 151.20392 | 38870 ft | 500 kts | 98° |
| 2026-05-08 08:33 | 53.24932 | 151.31888 | 38876 ft | 500 kts | 98° |
| 2026-05-08 08:33 | 53.24153 | 151.43425 | 38872 ft | 500 kts | 98° |
| 2026-05-08 08:34 | 53.23372 | 151.54951 | 38871 ft | 500 kts | 98° |
| 2026-05-08 08:34 | 53.22585 | 151.66500 | 38872 ft | 501 kts | 98° |
| 2026-05-08 08:35 | 53.21783 | 151.78053 | 38877 ft | 501 kts | 98° |
| 2026-05-08 08:35 | 53.20962 | 151.89606 | 38873 ft | 501 kts | 98° |
| 2026-05-08 08:36 | 53.20143 | 152.01092 | 38875 ft | 502 kts | 98° |
| 2026-05-08 08:36 | 53.19308 | 152.12656 | 38874 ft | 502 kts | 98° |
| 2026-05-08 08:37 | 53.18464 | 152.24223 | 38875 ft | 502 kts | 98° |
| 2026-05-08 08:37 | 53.17607 | 152.35772 | 38874 ft | 502 kts | 99° |
| 2026-05-08 08:38 | 53.16729 | 152.47335 | 38872 ft | 503 kts | 99° |
| 2026-05-08 08:38 | 53.15843 | 152.58898 | 38871 ft | 503 kts | 99° |
| 2026-05-08 08:39 | 53.14958 | 152.70468 | 38873 ft | 503 kts | 99° |
| 2026-05-08 08:39 | 53.14059 | 152.81968 | 38875 ft | 504 kts | 99° |
| 2026-05-08 08:40 | 53.13132 | 152.93564 | 38875 ft | 504 kts | 99° |
| 2026-05-08 08:40 | 53.12203 | 153.05140 | 38876 ft | 504 kts | 99° |
| 2026-05-08 08:41 | 53.11263 | 153.16734 | 38877 ft | 505 kts | 99° |
| 2026-05-08 08:41 | 53.10306 | 153.28323 | 38881 ft | 505 kts | 99° |
| 2026-05-08 08:42 | 53.09337 | 153.39903 | 38878 ft | 505 kts | 100° |
| 2026-05-08 08:42 | 53.08368 | 153.51433 | 38883 ft | 506 kts | 100° |
| 2026-05-08 08:43 | 53.07382 | 153.63018 | 38885 ft | 506 kts | 100° |
| 2026-05-08 08:43 | 53.06385 | 153.74609 | 38884 ft | 506 kts | 100° |
| 2026-05-08 08:44 | 53.05366 | 153.86208 | 38885 ft | 507 kts | 100° |
| 2026-05-08 08:44 | 53.04341 | 153.97732 | 38882 ft | 507 kts | 100° |
| 2026-05-08 08:45 | 53.03308 | 154.09337 | 38886 ft | 507 kts | 100° |
| 2026-05-08 08:45 | 53.02262 | 154.20937 | 38890 ft | 508 kts | 101° |
| 2026-05-08 08:46 | 53.01200 | 154.32536 | 38886 ft | 508 kts | 101° |
| 2026-05-08 08:46 | 53.00127 | 154.44149 | 38892 ft | 509 kts | 101° |
| 2026-05-08 08:47 | 52.99047 | 154.55766 | 38892 ft | 509 kts | 101° |
| 2026-05-08 08:47 | 52.97955 | 154.67383 | 38894 ft | 509 kts | 101° |
| 2026-05-08 08:48 | 52.96841 | 154.78990 | 38892 ft | 509 kts | 101° |
| 2026-05-08 08:48 | 52.95713 | 154.90590 | 38891 ft | 509 kts | 101° |
| 2026-05-08 08:49 | 52.94573 | 155.02111 | 38897 ft | 510 kts | 101° |
| 2026-05-08 08:49 | 52.93423 | 155.13721 | 38897 ft | 510 kts | 101° |
| 2026-05-08 08:50 | 52.92283 | 155.25338 | 38892 ft | 510 kts | 101° |
| 2026-05-08 08:50 | 52.91150 | 155.36958 | 38894 ft | 510 kts | 101° |
| 2026-05-08 08:51 | 52.90001 | 155.48563 | 38892 ft | 510 kts | 101° |
| 2026-05-08 08:51 | 52.88840 | 155.60100 | 38893 ft | 510 kts | 102° |
| 2026-05-08 08:52 | 52.87647 | 155.71702 | 38894 ft | 511 kts | 102° |
| 2026-05-08 08:52 | 52.86445 | 155.83238 | 38895 ft | 511 kts | 102° |
| 2026-05-08 08:53 | 52.85192 | 155.94834 | 38897 ft | 511 kts | 102° |
| 2026-05-08 08:53 | 52.83919 | 156.06408 | 38897 ft | 511 kts | 102° |
| 2026-05-08 08:54 | 52.82628 | 156.17966 | 38897 ft | 511 kts | 101° |
| 2026-05-08 08:54 | 52.82441 | 156.29722 | 38896 ft | 513 kts | 82° |
| 2026-05-08 08:55 | 52.84137 | 156.41088 | 38895 ft | 513 kts | 73° |
| 2026-05-08 08:55 | 52.86083 | 156.52452 | 38615 ft | 513 kts | 73° |
| 2026-05-08 08:56 | 52.87044 | 156.58157 | 38373 ft | 518 kts | 73° |
| 2026-05-08 08:56 | 52.88011 | 156.63927 | 38104 ft | 519 kts | 73° |
| 2026-05-08 08:56 | 52.88975 | 156.69683 | 37830 ft | 517 kts | 73° |
| 2026-05-08 08:56 | 52.89937 | 156.75427 | 37122 ft | 519 kts | 73° |
| 2026-05-08 08:57 | 52.90902 | 156.81185 | 36654 ft | 515 kts | 73° |
| 2026-05-08 08:57 | 52.91854 | 156.86880 | 36150 ft | 511 kts | 73° |
| 2026-05-08 08:57 | 52.92796 | 156.92534 | 35637 ft | 508 kts | 73° |
| 2026-05-08 08:57 | 52.93726 | 156.98155 | 35139 ft | 504 kts | 73° |
| 2026-05-08 08:58 | 52.94648 | 157.03750 | 34658 ft | 501 kts | 73° |
| 2026-05-08 08:58 | 52.95561 | 157.09301 | 34187 ft | 498 kts | 73° |
| 2026-05-08 08:58 | 52.96468 | 157.14821 | 33556 ft | 497 kts | 73° |
| 2026-05-08 08:58 | 52.97391 | 157.20439 | 31982 ft | 514 kts | 73° |
| 2026-05-08 08:59 | 52.98347 | 157.26253 | 30650 ft | 528 kts | 73° |
| 2026-05-08 08:59 | 52.98985 | 157.30158 | 29993 ft | 530 kts | 73° |
| 2026-05-08 08:59 | 52.99942 | 157.36050 | 29171 ft | 525 kts | 73° |
| 2026-05-08 08:59 | 53.00883 | 157.41882 | 28284 ft | 520 kts | 73° |
| 2026-05-08 09:00 | 53.01810 | 157.47652 | 27536 ft | 513 kts | 74° |
| 2026-05-08 09:00 | 53.02720 | 157.53339 | 26832 ft | 505 kts | 74° |
| 2026-05-08 09:00 | 53.03615 | 157.58944 | 26186 ft | 497 kts | 74° |
| 2026-05-08 09:00 | 53.04277 | 157.64460 | 25516 ft | 489 kts | 80° |
| 2026-05-08 09:01 | 53.04823 | 157.69987 | 24868 ft | 481 kts | 80° |
| 2026-05-08 09:01 | 53.05361 | 157.75433 | 24262 ft | 473 kts | 80° |
| 2026-05-08 09:01 | 53.05885 | 157.80734 | 24082 ft | 455 kts | 80° |
| 2026-05-08 09:01 | 53.06389 | 157.85831 | 23951 ft | 438 kts | 80° |
| 2026-05-08 09:02 | 53.06874 | 157.90736 | 23827 ft | 422 kts | 80° |
| 2026-05-08 09:02 | 53.07339 | 157.95470 | 23689 ft | 407 kts | 80° |
| 2026-05-08 09:02 | 53.07784 | 158.00035 | 23570 ft | 393 kts | 80° |
| 2026-05-08 09:02 | 53.08211 | 158.04457 | 23291 ft | 384 kts | 80° |
| 2026-05-08 09:03 | 53.08629 | 158.08817 | 22835 ft | 380 kts | 80° |
| 2026-05-08 09:03 | 53.09042 | 158.13146 | 22008 ft | 377 kts | 80° |
| 2026-05-08 09:03 | 53.09449 | 158.17428 | 21195 ft | 373 kts | 80° |
| 2026-05-08 09:03 | 53.09851 | 158.21662 | 20402 ft | 369 kts | 80° |
| 2026-05-08 09:04 | 53.10247 | 158.25853 | 19629 ft | 365 kts | 80° |
| 2026-05-08 09:04 | 53.10640 | 158.30002 | 18868 ft | 361 kts | 80° |
| 2026-05-08 09:04 | 53.11026 | 158.34115 | 18134 ft | 358 kts | 80° |
| 2026-05-08 09:04 | 53.11402 | 158.38141 | 17323 ft | 355 kts | 80° |
| 2026-05-08 09:05 | 53.11777 | 158.42180 | 16507 ft | 352 kts | 80° |
| 2026-05-08 09:05 | 53.12150 | 158.46201 | 15717 ft | 349 kts | 80° |
| 2026-05-08 09:05 | 53.12520 | 158.50183 | 14937 ft | 346 kts | 80° |
| 2026-05-08 09:05 | 53.12882 | 158.54140 | 14181 ft | 344 kts | 80° |
| 2026-05-08 09:06 | 53.13239 | 158.58050 | 13517 ft | 338 kts | 80° |
| 2026-05-08 09:06 | 53.13575 | 158.61896 | 12792 ft | 333 kts | 84° |
| 2026-05-08 09:06 | 53.13401 | 158.65697 | 12084 ft | 328 kts | 105° |
| 2026-05-08 09:06 | 53.12456 | 158.69098 | 11401 ft | 322 kts | 127° |
| 2026-05-08 09:07 | 53.10890 | 158.71679 | 10717 ft | 314 kts | 148° |
| 2026-05-08 09:07 | 53.08962 | 158.73259 | 10095 ft | 306 kts | 160° |
| 2026-05-08 09:07 | 53.07015 | 158.74571 | 9586 ft | 297 kts | 160° |
| 2026-05-08 09:07 | 53.05155 | 158.75836 | 9044 ft | 289 kts | 159° |
| 2026-05-08 09:08 | 53.03315 | 158.77087 | 8567 ft | 283 kts | 159° |
| 2026-05-08 09:08 | 53.01487 | 158.78327 | 8115 ft | 284 kts | 159° |
| 2026-05-08 09:08 | 52.99644 | 158.79548 | 7684 ft | 284 kts | 164° |
| 2026-05-08 09:08 | 52.97724 | 158.79756 | 7266 ft | 276 kts | 197° |
| 2026-05-08 09:09 | 52.96098 | 158.78248 | 6777 ft | 268 kts | 230° |
| 2026-05-08 09:09 | 52.95182 | 158.75631 | 6261 ft | 259 kts | 250° |
| 2026-05-08 09:09 | 52.94512 | 158.72942 | 5779 ft | 250 kts | 252° |
| 2026-05-08 09:09 | 52.93864 | 158.70324 | 5308 ft | 241 kts | 251° |
| 2026-05-08 09:10 | 52.93238 | 158.67795 | 4861 ft | 234 kts | 252° |
| 2026-05-08 09:10 | 52.92693 | 158.65275 | 4418 ft | 230 kts | 265° |
| 2026-05-08 09:10 | 52.92911 | 158.62730 | 3996 ft | 224 kts | 298° |
| 2026-05-08 09:10 | 52.93959 | 158.60919 | 3782 ft | 217 kts | 329° |
| 2026-05-08 09:11 | 52.95325 | 158.59925 | 3598 ft | 212 kts | 335° |
| 2026-05-08 09:11 | 52.96675 | 158.59019 | 3388 ft | 207 kts | 334° |
| 2026-05-08 09:11 | 52.97998 | 158.58118 | 3191 ft | 203 kts | 334° |
| 2026-05-08 09:11 | 52.99294 | 158.57230 | 2995 ft | 199 kts | 333° |
| 2026-05-08 09:12 | 53.00539 | 158.56376 | 2798 ft | 188 kts | 334° |
| 2026-05-08 09:12 | 53.01725 | 158.55561 | 2636 ft | 181 kts | 333° |
| 2026-05-08 09:12 | 53.02853 | 158.54787 | 2457 ft | 170 kts | 333° |
| 2026-05-08 09:12 | 53.03913 | 158.54059 | 2321 ft | 159 kts | 333° |
| 2026-05-08 09:13 | 53.04911 | 158.53370 | 2236 ft | 156 kts | 333° |
| 2026-05-08 09:13 | 53.05914 | 158.52679 | 2082 ft | 156 kts | 333° |
| 2026-05-08 09:13 | 53.06911 | 158.51992 | 1895 ft | 155 kts | 333° |
| 2026-05-08 09:13 | 53.07893 | 158.51316 | 1691 ft | 148 kts | 332° |
| 2026-05-08 09:14 | 53.08788 | 158.50701 | 1496 ft | 134 kts | 332° |
| 2026-05-08 09:14 | 53.09642 | 158.50111 | 1314 ft | 133 kts | 332° |
| 2026-05-08 09:14 | 53.10500 | 158.49516 | 1147 ft | 134 kts | 333° |
| 2026-05-08 09:14 | 53.11362 | 158.48919 | 969 ft | 134 kts | 332° |
| 2026-05-08 09:15 | 53.12219 | 158.48322 | 802 ft | 133 kts | 334° |
| 2026-05-08 09:15 | 53.13071 | 158.47735 | 652 ft | 131 kts | 335° |
| 2026-05-08 09:15 | 53.13912 | 158.47156 | 467 ft | 130 kts | 336° |
| 2026-05-08 09:15 | 53.14734 | 158.46585 | 306 ft | 129 kts | 336° |
| 2026-05-08 09:16 | 53.15558 | 158.46013 | 155 ft | 128 kts | 336° |
| 2026-05-08 09:16 | 53.16310 | 158.45488 | 121 ft | 99 kts | 339° |
| 2026-05-08 09:16 | 53.16788 | 158.45168 | 126 ft | 49 kts | 338° |
| 2026-05-08 09:16 | 53.17013 | 158.45011 | 123 ft | 32 kts | 337° |
| 2026-05-08 09:17 | 53.17206 | 158.44878 | 126 ft | 29 kts | 334° |
| 2026-05-08 09:17 | 53.17388 | 158.44745 | 123 ft | 28 kts | 337° |
| 2026-05-08 09:17 | 53.17573 | 158.44619 | 123 ft | 29 kts | 339° |
| 2026-05-08 09:17 | 53.17765 | 158.44490 | 124 ft | 31 kts | 337° |
| 2026-05-08 09:18 | 53.17956 | 158.44354 | 121 ft | 28 kts | 337° |
| 2026-05-08 09:18 | 53.18128 | 158.44233 | 122 ft | 26 kts | 341° |
| 2026-05-08 09:18 | 53.18271 | 158.44141 | 125 ft | 15 kts | 329° |
| 2026-05-08 09:18 | 53.18316 | 158.44036 | 126 ft | 10 kts | 288° |
| 2026-05-08 09:19 | 53.18300 | 158.43896 | 120 ft | 15 kts | 247° |
| 2026-05-08 09:19 | 53.18271 | 158.43781 | 119 ft | 8 kts | 248° |
| 2026-05-08 09:19 | 53.18252 | 158.43701 | 122 ft | 7 kts | 248° |
| 2026-05-08 09:19 | 53.18242 | 158.43632 | 121 ft | 5 kts | 275° |
| 2026-05-08 09:20 | 53.18254 | 158.43561 | 121 ft | 11 kts | 310° |
| 2026-05-08 09:20 | 53.18330 | 158.43477 | 121 ft | 15 kts | 306° |
| 2026-05-08 09:20 | 53.18346 | 158.43352 | 120 ft | 6 kts | 246° |
| 2026-05-08 09:20 | 53.18315 | 158.43325 | 120 ft | 5 kts | 196° |
| 2026-05-08 09:21 | 53.18298 | 158.43316 | 121 ft | 0 kts | 198° |